This is the latest recevied weather packets stored in our database for station/object F1ZFG-13. If no packets are shown the sender has not sent any weather packets the latest 10 day(s).
| Time | Temp. | Humidity | Pressure | Rain* | Wind** | Luminosity | Snow |
|---|---|---|---|---|---|---|---|
| 1777689389 | 12.78° C | 60% | 1023.2 hPa | 0 mm | - | - | - |
| 1777686147 | 13.33° C | 58% | 1023.5 hPa | 0 mm | - | - | - |
| 1777683065 | 13.89° C | 55% | 1023.7 hPa | 0 mm | - | - | - |
| 1777679825 | 15° C | 54% | 1023.7 hPa | 0 mm | - | - | - |
| 1777676536 | 15° C | 54% | 1023.7 hPa | 0 mm | - | - | - |
| 1777673575 | 16.11° C | 54% | 1023.4 hPa | 0 mm | - | - | - |
| 1777670640 | 17.22° C | 53% | 1023.1 hPa | 0 mm | - | - | - |
| 1777667494 | 17.78° C | 48% | 1022.5 hPa | 0 mm | - | - | - |
| 1777664421 | 19.44° C | 47% | 1021.7 hPa | 0 mm | - | - | - |
| 1777661142 | 21.11° C | 45% | 1021 hPa | 0 mm | - | - | - |
| 1777658150 | 22.22° C | 39% | 1020.5 hPa | 0 mm | - | - | - |
| 1777654719 | 23.33° C | 36% | 1020.2 hPa | 0 mm | - | - | - |
| 1777651695 | 23.33° C | 36% | 1020.2 hPa | 0 mm | - | - | - |
| 1777648758 | 23.89° C | 35% | 1020.5 hPa | 0 mm | - | - | - |
| 1777645419 | 23.89° C | 37% | 1021.1 hPa | 0 mm | - | - | - |
| 1777642031 | 23.33° C | 38% | 1022 hPa | 0 mm | - | - | - |
| 1777638480 | 22.78° C | 39% | 1022.1 hPa | 0 mm | - | - | - |
| 1777636171 | 21.67° C | 43% | 1022.8 hPa | 0 mm | - | - | - |
| 1777633196 | 20.56° C | 50% | 1023.3 hPa | 0 mm | - | - | - |
| 1777630322 | 20.56° C | 50% | 1023.3 hPa | 0 mm | - | - | - |
| 1777627296 | 18.33° C | 59% | 1023.4 hPa | 0 mm | - | - | - |
| 1777624132 | 16.11° C | 67% | 1023.4 hPa | 0 mm | - | - | - |
| 1777621235 | 14.44° C | 76% | 1023.5 hPa | 0 mm | - | - | - |
| 1777618044 | 12.22° C | 84% | 1023.1 hPa | 0 mm | - | - | - |
| 1777614783 | 10.56° C | 90% | 1022.7 hPa | 0 mm | - | - | - |
* Rain latest hour (hover to see other rain measurements)
** Current wind speed in m/s (hover to see current wind gust speed)